Romayor, Texas
Current Conditions -  °F | °C
As of 7:32 AM on Sunday 23 Nov 2014 (Local Time) from KCXO Reporting Station
Overcast Overcast  
Wind Chill: 60°   Ceiling: 1000
Heat Index: 60°   Visibility: 10mi
Dew Point: 59°   Wind: 6mph
Humidity: 96%   Direction: 240°WSW
Pressure: 29.66"   Gusts: NA
Location:  30.45°N, 94.84°W
Report Text: KCXO 231332Z 24005KT 10SM SCT004 OVC010 16/15 A2966 RMK AO2 RAB1255E17 CIG 007V014 P0000 T01560150
Loading
Personal Weather Stations






























Interactive Weather Map New forecast layout! Learn more

10-Day Weather Forecast

Advertisements
Track Severe Weather on mobile